sensor_id;sensor_type;location;lat;lon;timestamp;pressure;altitude;pressure_sealevel;temperature;humidity
16451;BME280;12243;42.708;23.310;2022-07-19T00:00:06;95674.88;;;19.11;67.79
16451;BME280;12243;42.708;23.310;2022-07-19T00:02:36;95676.00;;;19.09;67.48
16451;BME280;12243;42.708;23.310;2022-07-19T00:05:04;95677.97;;;19.07;67.82
16451;BME280;12243;42.708;23.310;2022-07-19T00:07:31;95679.97;;;19.04;68.25
16451;BME280;12243;42.708;23.310;2022-07-19T00:09:59;95679.81;;;18.98;68.29
16451;BME280;12243;42.708;23.310;2022-07-19T00:12:26;95677.00;;;18.91;68.69
16451;BME280;12243;42.708;23.310;2022-07-19T00:14:53;95681.59;;;18.89;69.08
16451;BME280;12243;42.708;23.310;2022-07-19T00:17:20;95668.56;;;18.88;68.98
16451;BME280;12243;42.708;23.310;2022-07-19T00:19:47;95680.59;;;18.82;69.50
16451;BME280;12243;42.708;23.310;2022-07-19T00:22:14;95683.59;;;18.87;69.02
16451;BME280;12243;42.708;23.310;2022-07-19T00:24:41;95681.91;;;18.86;69.26
16451;BME280;12243;42.708;23.310;2022-07-19T00:27:09;95679.28;;;18.86;69.58
16451;BME280;12243;42.708;23.310;2022-07-19T00:29:37;95678.78;;;18.83;70.12
16451;BME280;12243;42.708;23.310;2022-07-19T00:32:05;95682.59;;;18.80;69.84
16451;BME280;12243;42.708;23.310;2022-07-19T00:34:32;95673.50;;;18.83;70.09
16451;BME280;12243;42.708;23.310;2022-07-19T00:36:59;95673.34;;;18.84;70.19
16451;BME280;12243;42.708;23.310;2022-07-19T00:39:26;95672.34;;;18.77;70.31
16451;BME280;12243;42.708;23.310;2022-07-19T00:41:53;95671.69;;;18.75;70.47
16451;BME280;12243;42.708;23.310;2022-07-19T00:44:22;95670.34;;;18.79;70.45
16451;BME280;12243;42.708;23.310;2022-07-19T00:46:49;95675.63;;;18.79;70.34
16451;BME280;12243;42.708;23.310;2022-07-19T00:49:16;95676.00;;;18.76;70.95
16451;BME280;12243;42.708;23.310;2022-07-19T00:51:46;95672.97;;;18.71;71.07
16451;BME280;12243;42.708;23.310;2022-07-19T00:54:13;95676.09;;;18.66;71.15
16451;BME280;12243;42.708;23.310;2022-07-19T00:56:42;95660.47;;;18.73;71.05
16451;BME280;12243;42.708;23.310;2022-07-19T00:59:11;95671.69;;;18.75;71.28
16451;BME280;12243;42.708;23.310;2022-07-19T01:01:40;95677.91;;;18.66;71.55
16451;BME280;12243;42.708;23.310;2022-07-19T01:04:07;95664.09;;;18.72;71.23
16451;BME280;12243;42.708;23.310;2022-07-19T01:06:34;95661.09;;;18.67;71.41
16451;BME280;12243;42.708;23.310;2022-07-19T01:09:02;95661.91;;;18.67;71.73
16451;BME280;12243;42.708;23.310;2022-07-19T01:11:29;95665.69;;;18.65;71.93
16451;BME280;12243;42.708;23.310;2022-07-19T01:13:56;95665.38;;;18.60;72.26
16451;BME280;12243;42.708;23.310;2022-07-19T01:16:23;95666.38;;;18.67;72.18
16451;BME280;12243;42.708;23.310;2022-07-19T01:18:51;95667.00;;;18.61;72.23
16451;BME280;12243;42.708;23.310;2022-07-19T01:21:20;95662.03;;;18.57;72.63
16451;BME280;12243;42.708;23.310;2022-07-19T01:23:48;95660.72;;;18.53;72.81
16451;BME280;12243;42.708;23.310;2022-07-19T01:26:15;95657.09;;;18.54;72.66
16451;BME280;12243;42.708;23.310;2022-07-19T01:28:42;95660.41;;;18.56;72.44
16451;BME280;12243;42.708;23.310;2022-07-19T01:31:09;95650.00;;;18.47;73.40
16451;BME280;12243;42.708;23.310;2022-07-19T01:33:40;95653.75;;;18.44;73.47
16451;BME280;12243;42.708;23.310;2022-07-19T01:36:08;95658.56;;;18.49;73.33
16451;BME280;12243;42.708;23.310;2022-07-19T01:38:37;95655.44;;;18.45;73.64
16451;BME280;12243;42.708;23.310;2022-07-19T01:41:05;95647.16;;;18.40;73.36
16451;BME280;12243;42.708;23.310;2022-07-19T01:43:33;95658.41;;;18.42;73.99
16451;BME280;12243;42.708;23.310;2022-07-19T01:46:00;95653.09;;;18.34;74.24
16451;BME280;12243;42.708;23.310;2022-07-19T01:48:26;95651.28;;;18.35;74.21
16451;BME280;12243;42.708;23.310;2022-07-19T01:50:53;95643.88;;;18.38;73.83
16451;BME280;12243;42.708;23.310;2022-07-19T01:53:20;95654.75;;;18.35;73.81
16451;BME280;12243;42.708;23.310;2022-07-19T01:55:48;95659.47;;;18.23;74.64
16451;BME280;12243;42.708;23.310;2022-07-19T01:58:15;95649.78;;;18.32;74.07
16451;BME280;12243;42.708;23.310;2022-07-19T02:00:42;95652.25;;;18.33;73.90
16451;BME280;12243;42.708;23.310;2022-07-19T02:03:09;95652.06;;;18.27;74.09
16451;BME280;12243;42.708;23.310;2022-07-19T02:05:36;95649.78;;;18.24;74.48
16451;BME280;12243;42.708;23.310;2022-07-19T02:08:03;95655.38;;;18.21;74.92
16451;BME280;12243;42.708;23.310;2022-07-19T02:10:30;95654.38;;;18.22;74.62
16451;BME280;12243;42.708;23.310;2022-07-19T02:12:59;95659.81;;;18.20;75.18
16451;BME280;12243;42.708;23.310;2022-07-19T02:15:26;95654.34;;;18.14;75.15
16451;BME280;12243;42.708;23.310;2022-07-19T02:17:53;95654.81;;;18.09;75.78
16451;BME280;12243;42.708;23.310;2022-07-19T02:20:19;95663.53;;;18.09;75.38
16451;BME280;12243;42.708;23.310;2022-07-19T02:22:46;95658.63;;;18.15;75.18
16451;BME280;12243;42.708;23.310;2022-07-19T02:25:13;95661.88;;;18.08;75.24
16451;BME280;12243;42.708;23.310;2022-07-19T02:27:40;95665.84;;;18.04;75.33
16451;BME280;12243;42.708;23.310;2022-07-19T02:30:10;95655.91;;;17.98;76.36
16451;BME280;12243;42.708;23.310;2022-07-19T02:32:38;95659.22;;;18.00;75.78
16451;BME280;12243;42.708;23.310;2022-07-19T02:35:06;95668.44;;;17.96;76.24
16451;BME280;12243;42.708;23.310;2022-07-19T02:37:33;95664.81;;;17.97;75.99
16451;BME280;12243;42.708;23.310;2022-07-19T02:40:00;95668.44;;;17.96;76.22
16451;BME280;12243;42.708;23.310;2022-07-19T02:42:27;95666.75;;;17.95;75.93
16451;BME280;12243;42.708;23.310;2022-07-19T02:44:54;95672.22;;;17.94;75.86
16451;BME280;12243;42.708;23.310;2022-07-19T02:47:22;95674.34;;;17.90;76.18
16451;BME280;12243;42.708;23.310;2022-07-19T02:49:49;95672.38;;;17.92;76.19
16451;BME280;12243;42.708;23.310;2022-07-19T02:52:16;95677.97;;;17.89;75.93
16451;BME280;12243;42.708;23.310;2022-07-19T02:54:43;95678.28;;;17.86;76.09
16451;BME280;12243;42.708;23.310;2022-07-19T02:57:10;95678.38;;;17.76;76.12
16451;BME280;12243;42.708;23.310;2022-07-19T02:59:37;95675.88;;;17.75;76.42
16451;BME280;12243;42.708;23.310;2022-07-19T03:02:04;95678.50;;;17.75;76.53
16451;BME280;12243;42.708;23.310;2022-07-19T03:04:32;95680.94;;;17.68;76.77
16451;BME280;12243;42.708;23.310;2022-07-19T03:06:59;95677.31;;;17.69;76.99
16451;BME280;12243;42.708;23.310;2022-07-19T03:09:26;95678.97;;;17.70;76.31
16451;BME280;12243;42.708;23.310;2022-07-19T03:11:53;95681.69;;;17.60;77.29
16451;BME280;12243;42.708;23.310;2022-07-19T03:14:20;95683.47;;;17.52;77.20
16451;BME280;12243;42.708;23.310;2022-07-19T03:16:47;95681.50;;;17.54;77.41
16451;BME280;12243;42.708;23.310;2022-07-19T03:19:14;95683.75;;;17.49;77.24
16451;BME280;12243;42.708;23.310;2022-07-19T03:21:42;95676.38;;;17.52;77.50
16451;BME280;12243;42.708;23.310;2022-07-19T03:24:09;95680.00;;;17.51;77.36
16451;BME280;12243;42.708;23.310;2022-07-19T03:26:36;95685.06;;;17.45;77.99
16451;BME280;12243;42.708;23.310;2022-07-19T03:29:02;95694.38;;;17.39;77.97
16451;BME280;12243;42.708;23.310;2022-07-19T03:31:29;95692.91;;;17.36;78.50
16451;BME280;12243;42.708;23.310;2022-07-19T03:33:56;95692.91;;;17.36;78.48
16451;BME280;12243;42.708;23.310;2022-07-19T03:36:23;95700.44;;;17.31;78.90
16451;BME280;12243;42.708;23.310;2022-07-19T03:38:51;95699.31;;;17.34;78.89
16451;BME280;12243;42.708;23.310;2022-07-19T03:41:19;95706.91;;;17.37;78.52
16451;BME280;12243;42.708;23.310;2022-07-19T03:43:46;95708.59;;;17.46;78.26
16451;BME280;12243;42.708;23.310;2022-07-19T03:46:12;95709.41;;;17.47;77.87
16451;BME280;12243;42.708;23.310;2022-07-19T03:48:39;95706.03;;;17.54;78.09
16451;BME280;12243;42.708;23.310;2022-07-19T03:51:06;95704.47;;;17.70;77.48
16451;BME280;12243;42.708;23.310;2022-07-19T03:53:33;95711.19;;;18.16;75.70
16451;BME280;12243;42.708;23.310;2022-07-19T03:56:02;95707.84;;;18.91;72.64
16451;BME280;12243;42.708;23.310;2022-07-19T03:58:29;95709.66;;;19.56;68.64
16451;BME280;12243;42.708;23.310;2022-07-19T04:00:56;95717.25;;;19.99;67.45
16451;BME280;12243;42.708;23.310;2022-07-19T04:03:23;95718.47;;;20.36;65.45
16451;BME280;12243;42.708;23.310;2022-07-19T04:05:50;95725.97;;;20.64;64.01
16451;BME280;12243;42.708;23.310;2022-07-19T04:08:17;95716.38;;;20.94;62.96
16451;BME280;12243;42.708;23.310;2022-07-19T04:10:44;95715.13;;;21.13;62.27
16451;BME280;12243;42.708;23.310;2022-07-19T04:13:12;95720.53;;;21.43;60.97
16451;BME280;12243;42.708;23.310;2022-07-19T04:15:39;95717.34;;;21.47;60.57
16451;BME280;12243;42.708;23.310;2022-07-19T04:18:06;95719.59;;;21.58;60.17
16451;BME280;12243;42.708;23.310;2022-07-19T04:20:33;95718.59;;;21.74;59.82
16451;BME280;12243;42.708;23.310;2022-07-19T04:22:59;95722.19;;;21.96;59.23
16451;BME280;12243;42.708;23.310;2022-07-19T04:25:26;95718.66;;;22.04;58.77
16451;BME280;12243;42.708;23.310;2022-07-19T04:27:53;95711.34;;;22.21;58.21
16451;BME280;12243;42.708;23.310;2022-07-19T04:30:22;95714.00;;;22.50;57.33
16451;BME280;12243;42.708;23.310;2022-07-19T04:32:49;95711.97;;;22.67;56.79
16451;BME280;12243;42.708;23.310;2022-07-19T04:35:16;95711.25;;;22.73;56.67
16451;BME280;12243;42.708;23.310;2022-07-19T04:37:43;95711.75;;;22.98;56.05
16451;BME280;12243;42.708;23.310;2022-07-19T04:40:10;95720.56;;;23.20;54.75
16451;BME280;12243;42.708;23.310;2022-07-19T04:42:37;95724.59;;;23.38;54.45
16451;BME280;12243;42.708;23.310;2022-07-19T04:45:05;95720.41;;;23.93;53.25
16451;BME280;12243;42.708;23.310;2022-07-19T04:47:33;95734.94;;;24.25;52.38
16451;BME280;12243;42.708;23.310;2022-07-19T04:50:00;95727.38;;;24.63;51.21
16451;BME280;12243;42.708;23.310;2022-07-19T04:52:27;95733.69;;;25.04;49.97
16451;BME280;12243;42.708;23.310;2022-07-19T04:54:54;95734.19;;;25.34;49.23
16451;BME280;12243;42.708;23.310;2022-07-19T04:57:21;95734.44;;;25.79;48.16
16451;BME280;12243;42.708;23.310;2022-07-19T04:59:48;95737.13;;;26.19;46.73
16451;BME280;12243;42.708;23.310;2022-07-19T05:02:15;95730.53;;;26.14;46.58
16451;BME280;12243;42.708;23.310;2022-07-19T05:04:43;95735.91;;;26.01;47.02
16451;BME280;12243;42.708;23.310;2022-07-19T05:07:10;95733.84;;;25.97;47.22
16451;BME280;12243;42.708;23.310;2022-07-19T05:09:37;95731.81;;;26.12;46.91
16451;BME280;12243;42.708;23.310;2022-07-19T05:12:04;95732.16;;;26.29;46.34
16451;BME280;12243;42.708;23.310;2022-07-19T05:14:33;95725.59;;;26.31;46.67
16451;BME280;12243;42.708;23.310;2022-07-19T05:17:00;95728.84;;;26.53;46.06
16451;BME280;12243;42.708;23.310;2022-07-19T05:19:27;95728.06;;;26.26;46.22
16451;BME280;12243;42.708;23.310;2022-07-19T05:21:55;95728.28;;;26.25;46.23
16451;BME280;12243;42.708;23.310;2022-07-19T05:24:22;95723.72;;;26.38;46.31
16451;BME280;12243;42.708;23.310;2022-07-19T05:26:49;95736.03;;;26.59;45.39
16451;BME280;12243;42.708;23.310;2022-07-19T05:29:15;95731.19;;;26.88;45.04
16451;BME280;12243;42.708;23.310;2022-07-19T05:31:42;95735.25;;;27.04;44.44
16451;BME280;12243;42.708;23.310;2022-07-19T05:34:09;95739.91;;;26.64;44.60
16451;BME280;12243;42.708;23.310;2022-07-19T05:36:36;95733.81;;;26.30;45.68
16451;BME280;12243;42.708;23.310;2022-07-19T05:39:05;95746.06;;;26.71;45.31
16451;BME280;12243;42.708;23.310;2022-07-19T05:41:31;95741.44;;;26.98;44.04
16451;BME280;12243;42.708;23.310;2022-07-19T05:43:58;95740.97;;;27.07;44.15
16451;BME280;12243;42.708;23.310;2022-07-19T05:46:25;95744.06;;;27.49;43.71
16451;BME280;12243;42.708;23.310;2022-07-19T05:48:52;95737.31;;;27.72;42.70
16451;BME280;12243;42.708;23.310;2022-07-19T05:51:19;95741.25;;;27.76;42.51
16451;BME280;12243;42.708;23.310;2022-07-19T05:53:46;95735.25;;;27.42;42.56
16451;BME280;12243;42.708;23.310;2022-07-19T05:56:14;95731.06;;;27.21;43.19
16451;BME280;12243;42.708;23.310;2022-07-19T05:58:41;95733.34;;;27.18;43.88
16451;BME280;12243;42.708;23.310;2022-07-19T06:01:08;95731.00;;;27.35;43.24
16451;BME280;12243;42.708;23.310;2022-07-19T06:03:44;95734.00;;;27.45;43.10
16451;BME280;12243;42.708;23.310;2022-07-19T06:06:11;95733.03;;;27.64;42.15
16451;BME280;12243;42.708;23.310;2022-07-19T06:08:39;95729.13;;;27.67;42.97
16451;BME280;12243;42.708;23.310;2022-07-19T06:11:05;95727.44;;;27.79;42.48
16451;BME280;12243;42.708;23.310;2022-07-19T06:13:34;95735.22;;;28.06;41.67
16451;BME280;12243;42.708;23.310;2022-07-19T06:16:01;95729.38;;;28.34;41.40
16451;BME280;12243;42.708;23.310;2022-07-19T06:18:28;95728.75;;;28.57;40.20
16451;BME280;12243;42.708;23.310;2022-07-19T06:21:24;95735.53;;;28.41;40.81
16451;BME280;12243;42.708;23.310;2022-07-19T06:23:51;95725.63;;;28.78;39.66
16451;BME280;12243;42.708;23.310;2022-07-19T06:26:18;95728.59;;;29.07;39.49
16451;BME280;12243;42.708;23.310;2022-07-19T06:28:47;95725.69;;;29.08;39.49
16451;BME280;12243;42.708;23.310;2022-07-19T06:31:14;95724.41;;;29.11;39.89
16451;BME280;12243;42.708;23.310;2022-07-19T06:33:43;95723.34;;;29.30;38.64
16451;BME280;12243;42.708;23.310;2022-07-19T06:36:11;95724.97;;;29.31;38.68
16451;BME280;12243;42.708;23.310;2022-07-19T06:38:39;95715.22;;;29.49;38.73
16451;BME280;12243;42.708;23.310;2022-07-19T06:41:07;95711.94;;;29.47;38.94
16451;BME280;12243;42.708;23.310;2022-07-19T06:43:34;95715.84;;;29.32;38.68
16451;BME280;12243;42.708;23.310;2022-07-19T06:46:02;95723.16;;;29.43;37.79
16451;BME280;12243;42.708;23.310;2022-07-19T06:48:29;95718.41;;;29.27;38.32
16451;BME280;12243;42.708;23.310;2022-07-19T06:50:56;95711.06;;;29.23;38.90
16451;BME280;12243;42.708;23.310;2022-07-19T06:53:24;95714.22;;;29.31;38.48
16451;BME280;12243;42.708;23.310;2022-07-19T06:55:51;95714.44;;;29.00;38.66
16451;BME280;12243;42.708;23.310;2022-07-19T06:58:18;95709.38;;;28.91;39.16
16451;BME280;12243;42.708;23.310;2022-07-19T07:00:45;95719.38;;;28.84;39.31
16451;BME280;12243;42.708;23.310;2022-07-19T07:03:15;95717.41;;;28.73;39.29
16451;BME280;12243;42.708;23.310;2022-07-19T07:05:43;95708.72;;;28.78;38.40
16451;BME280;12243;42.708;23.310;2022-07-19T07:08:09;95711.16;;;28.79;39.53
16451;BME280;12243;42.708;23.310;2022-07-19T07:10:36;95707.59;;;28.85;37.72
16451;BME280;12243;42.708;23.310;2022-07-19T07:13:05;95714.00;;;29.03;36.54
16451;BME280;12243;42.708;23.310;2022-07-19T07:15:33;95717.09;;;29.18;36.61
16451;BME280;12243;42.708;23.310;2022-07-19T07:18:03;95711.78;;;28.81;37.47
16451;BME280;12243;42.708;23.310;2022-07-19T07:20:32;95703.00;;;28.74;36.59
16451;BME280;12243;42.708;23.310;2022-07-19T07:22:59;95701.94;;;28.75;37.79
16451;BME280;12243;42.708;23.310;2022-07-19T07:25:26;95710.13;;;28.99;36.65
16451;BME280;12243;42.708;23.310;2022-07-19T07:27:53;95707.72;;;28.90;35.21
16451;BME280;12243;42.708;23.310;2022-07-19T07:30:20;95705.22;;;28.59;35.83
16451;BME280;12243;42.708;23.310;2022-07-19T07:32:47;95704.09;;;28.48;35.90
16451;BME280;12243;42.708;23.310;2022-07-19T07:35:14;95701.97;;;28.38;36.43
16451;BME280;12243;42.708;23.310;2022-07-19T07:37:42;95703.78;;;28.38;36.33
16451;BME280;12243;42.708;23.310;2022-07-19T07:40:10;95694.19;;;28.48;35.93
16451;BME280;12243;42.708;23.310;2022-07-19T07:42:37;95695.66;;;28.26;35.75
16451;BME280;12243;42.708;23.310;2022-07-19T07:45:05;95697.19;;;27.97;35.61
16451;BME280;12243;42.708;23.310;2022-07-19T07:47:35;95694.75;;;28.14;35.67
16451;BME280;12243;42.708;23.310;2022-07-19T07:50:03;95690.88;;;28.10;34.04
16451;BME280;12243;42.708;23.310;2022-07-19T07:52:30;95698.84;;;28.35;33.80
16451;BME280;12243;42.708;23.310;2022-07-19T07:54:59;95690.16;;;28.21;34.98
16451;BME280;12243;42.708;23.310;2022-07-19T07:57:26;95701.16;;;28.13;34.57
16451;BME280;12243;42.708;23.310;2022-07-19T07:59:53;95689.69;;;28.06;33.11
16451;BME280;12243;42.708;23.310;2022-07-19T08:02:20;95692.22;;;28.00;33.42
16451;BME280;12243;42.708;23.310;2022-07-19T08:04:47;95685.50;;;27.91;32.50
16451;BME280;12243;42.708;23.310;2022-07-19T08:07:14;95673.78;;;27.86;31.86
16451;BME280;12243;42.708;23.310;2022-07-19T08:09:41;95680.59;;;28.07;33.41
16451;BME280;12243;42.708;23.310;2022-07-19T08:12:09;95690.44;;;28.31;32.15
16451;BME280;12243;42.708;23.310;2022-07-19T08:14:36;95690.34;;;28.44;31.06
16451;BME280;12243;42.708;23.310;2022-07-19T08:17:03;95690.06;;;28.53;30.81
16451;BME280;12243;42.708;23.310;2022-07-19T08:19:30;95683.78;;;28.77;30.82
16451;BME280;12243;42.708;23.310;2022-07-19T08:21:56;95689.97;;;29.08;31.38
16451;BME280;12243;42.708;23.310;2022-07-19T08:24:23;95673.63;;;29.28;30.26
16451;BME280;12243;42.708;23.310;2022-07-19T08:26:50;95675.47;;;29.27;29.21
16451;BME280;12243;42.708;23.310;2022-07-19T08:29:18;95678.88;;;29.34;29.83
16451;BME280;12243;42.708;23.310;2022-07-19T08:31:45;95678.19;;;29.39;30.34
16451;BME280;12243;42.708;23.310;2022-07-19T08:34:12;95671.81;;;29.52;29.62
16451;BME280;12243;42.708;23.310;2022-07-19T08:36:39;95670.22;;;29.74;30.39
16451;BME280;12243;42.708;23.310;2022-07-19T08:39:06;95677.00;;;29.65;30.33
16451;BME280;12243;42.708;23.310;2022-07-19T08:41:33;95675.91;;;29.54;30.58
16451;BME280;12243;42.708;23.310;2022-07-19T08:44:02;95664.75;;;29.27;30.46
16451;BME280;12243;42.708;23.310;2022-07-19T08:46:31;95677.06;;;29.05;30.86
16451;BME280;12243;42.708;23.310;2022-07-19T08:48:58;95665.66;;;28.72;31.23
16451;BME280;12243;42.708;23.310;2022-07-19T08:51:25;95672.13;;;28.83;31.54
16451;BME280;12243;42.708;23.310;2022-07-19T08:53:53;95673.91;;;28.89;31.26
16451;BME280;12243;42.708;23.310;2022-07-19T08:56:20;95665.66;;;29.21;31.06
16451;BME280;12243;42.708;23.310;2022-07-19T08:59:05;95666.50;;;29.75;30.64
16451;BME280;12243;42.708;23.310;2022-07-19T09:01:33;95661.34;;;30.09;29.89
16451;BME280;12243;42.708;23.310;2022-07-19T09:04:14;95656.47;;;30.06;29.65
16451;BME280;12243;42.708;23.310;2022-07-19T09:06:43;95661.25;;;30.04;30.50
16451;BME280;12243;42.708;23.310;2022-07-19T09:09:12;95666.97;;;29.72;29.99
16451;BME280;12243;42.708;23.310;2022-07-19T09:11:41;95667.81;;;29.42;31.29
16451;BME280;12243;42.708;23.310;2022-07-19T09:14:15;95656.88;;;29.14;30.81
16451;BME280;12243;42.708;23.310;2022-07-19T09:16:58;95657.88;;;29.31;30.76
16451;BME280;12243;42.708;23.310;2022-07-19T09:19:28;95646.81;;;29.39;30.87
16451;BME280;12243;42.708;23.310;2022-07-19T09:21:57;95646.03;;;29.74;30.76
16451;BME280;12243;42.708;23.310;2022-07-19T09:24:27;95646.88;;;29.98;30.50
16451;BME280;12243;42.708;23.310;2022-07-19T09:26:59;95645.81;;;30.23;29.59
16451;BME280;12243;42.708;23.310;2022-07-19T09:29:26;95641.00;;;30.36;29.68
16451;BME280;12243;42.708;23.310;2022-07-19T09:32:14;95645.19;;;30.56;29.36
16451;BME280;12243;42.708;23.310;2022-07-19T09:34:51;95650.91;;;31.00;28.71
16451;BME280;12243;42.708;23.310;2022-07-19T09:37:22;95643.44;;;31.19;28.47
16451;BME280;12243;42.708;23.310;2022-07-19T09:39:52;95641.50;;;31.14;28.69
16451;BME280;12243;42.708;23.310;2022-07-19T09:42:22;95637.31;;;31.23;28.49
16451;BME280;12243;42.708;23.310;2022-07-19T09:44:57;95642.19;;;31.55;27.97
16451;BME280;12243;42.708;23.310;2022-07-19T09:47:32;95641.38;;;31.71;27.54
16451;BME280;12243;42.708;23.310;2022-07-19T09:49:59;95639.34;;;31.78;27.55
16451;BME280;12243;42.708;23.310;2022-07-19T09:52:26;95632.09;;;31.45;27.90
16451;BME280;12243;42.708;23.310;2022-07-19T09:54:54;95640.13;;;31.28;28.47
16451;BME280;12243;42.708;23.310;2022-07-19T09:57:22;95629.34;;;31.28;28.02
16451;BME280;12243;42.708;23.310;2022-07-19T09:59:51;95635.91;;;31.33;28.42
16451;BME280;12243;42.708;23.310;2022-07-19T10:02:22;95641.19;;;30.99;28.14
16451;BME280;12243;42.708;23.310;2022-07-19T10:04:50;95634.16;;;30.69;29.06
16451;BME280;12243;42.708;23.310;2022-07-19T10:07:18;95638.59;;;30.75;29.01
16451;BME280;12243;42.708;23.310;2022-07-19T10:09:45;95632.50;;;30.68;29.49
16451;BME280;12243;42.708;23.310;2022-07-19T10:12:12;95623.25;;;30.88;29.55
16451;BME280;12243;42.708;23.310;2022-07-19T10:14:39;95626.94;;;31.44;29.28
16451;BME280;12243;42.708;23.310;2022-07-19T10:17:18;95627.75;;;31.95;29.08
16451;BME280;12243;42.708;23.310;2022-07-19T10:19:49;95617.88;;;31.84;27.47
16451;BME280;12243;42.708;23.310;2022-07-19T10:22:19;95611.75;;;31.38;28.52
16451;BME280;12243;42.708;23.310;2022-07-19T10:24:51;95614.69;;;31.36;28.21
16451;BME280;12243;42.708;23.310;2022-07-19T10:27:34;95623.25;;;31.84;27.95
16451;BME280;12243;42.708;23.310;2022-07-19T10:30:16;95616.09;;;31.89;27.74
16451;BME280;12243;42.708;23.310;2022-07-19T10:32:45;95613.31;;;31.67;28.02
16451;BME280;12243;42.708;23.310;2022-07-19T10:35:18;95616.75;;;31.17;28.33
16451;BME280;12243;42.708;23.310;2022-07-19T10:37:47;95610.63;;;30.48;29.49
16451;BME280;12243;42.708;23.310;2022-07-19T10:40:34;95619.75;;;30.11;30.14
16451;BME280;12243;42.708;23.310;2022-07-19T10:43:05;95608.81;;;30.13;30.26
16451;BME280;12243;42.708;23.310;2022-07-19T10:45:33;95605.28;;;30.24;30.12
16451;BME280;12243;42.708;23.310;2022-07-19T10:48:14;95600.22;;;30.51;29.95
16451;BME280;12243;42.708;23.310;2022-07-19T10:50:50;95602.44;;;30.71;29.11
16451;BME280;12243;42.708;23.310;2022-07-19T10:56:27;95604.00;;;31.24;28.17
16451;BME280;12243;42.708;23.310;2022-07-19T10:58:56;95598.28;;;31.71;28.68
16451;BME280;12243;42.708;23.310;2022-07-19T11:01:25;95592.06;;;32.26;28.22
16451;BME280;12243;42.708;23.310;2022-07-19T11:03:54;95586.94;;;32.69;27.44
16451;BME280;12243;42.708;23.310;2022-07-19T11:06:42;95583.69;;;33.21;26.22
16451;BME280;12243;42.708;23.310;2022-07-19T11:09:09;95596.00;;;33.39;26.02
16451;BME280;12243;42.708;23.310;2022-07-19T11:11:36;95592.41;;;33.60;25.88
16451;BME280;12243;42.708;23.310;2022-07-19T11:14:04;95595.28;;;33.49;25.93
16451;BME280;12243;42.708;23.310;2022-07-19T11:16:30;95587.84;;;32.80;26.35
16451;BME280;12243;42.708;23.310;2022-07-19T11:19:02;95588.63;;;32.09;26.81
16451;BME280;12243;42.708;23.310;2022-07-19T11:21:30;95589.78;;;31.79;26.88
16451;BME280;12243;42.708;23.310;2022-07-19T11:24:00;95581.22;;;31.15;27.94
16451;BME280;12243;42.708;23.310;2022-07-19T11:26:34;95576.91;;;30.57;28.94
16451;BME280;12243;42.708;23.310;2022-07-19T11:29:01;95571.91;;;30.20;29.05
16451;BME280;12243;42.708;23.310;2022-07-19T11:31:28;95573.25;;;30.34;29.21
16451;BME280;12243;42.708;23.310;2022-07-19T11:33:55;95567.25;;;30.73;28.79
16451;BME280;12243;42.708;23.310;2022-07-19T11:36:23;95570.53;;;31.20;28.45
16451;BME280;12243;42.708;23.310;2022-07-19T11:38:53;95571.72;;;31.97;27.45
16451;BME280;12243;42.708;23.310;2022-07-19T11:41:25;95565.47;;;32.35;26.48
16451;BME280;12243;42.708;23.310;2022-07-19T11:43:53;95571.56;;;32.25;26.90
16451;BME280;12243;42.708;23.310;2022-07-19T11:46:21;95571.75;;;32.41;26.32
16451;BME280;12243;42.708;23.310;2022-07-19T11:48:48;95566.31;;;32.85;25.71
16451;BME280;12243;42.708;23.310;2022-07-19T11:51:16;95568.47;;;33.10;25.63
16451;BME280;12243;42.708;23.310;2022-07-19T11:53:48;95574.31;;;32.75;25.69
16451;BME280;12243;42.708;23.310;2022-07-19T11:56:18;95566.94;;;32.65;25.78
16451;BME280;12243;42.708;23.310;2022-07-19T11:58:47;95562.22;;;33.04;25.45
16451;BME280;12243;42.708;23.310;2022-07-19T12:01:14;95557.66;;;33.42;24.81
16451;BME280;12243;42.708;23.310;2022-07-19T12:03:52;95559.50;;;33.04;25.08
16451;BME280;12243;42.708;23.310;2022-07-19T12:06:19;95558.50;;;32.17;26.41
16451;BME280;12243;42.708;23.310;2022-07-19T12:08:46;95551.59;;;31.15;27.22
16451;BME280;12243;42.708;23.310;2022-07-19T12:11:20;95552.56;;;30.35;28.32
16451;BME280;12243;42.708;23.310;2022-07-19T12:13:51;95544.19;;;30.08;28.70
16451;BME280;12243;42.708;23.310;2022-07-19T12:16:18;95546.78;;;30.55;28.38
16451;BME280;12243;42.708;23.310;2022-07-19T12:18:48;95554.38;;;30.87;28.09
16451;BME280;12243;42.708;23.310;2022-07-19T12:21:26;95548.22;;;31.37;27.18
16451;BME280;12243;42.708;23.310;2022-07-19T12:24:17;95549.22;;;31.69;27.28
16451;BME280;12243;42.708;23.310;2022-07-19T12:26:53;95534.41;;;32.06;26.91
16451;BME280;12243;42.708;23.310;2022-07-19T12:29:24;95537.63;;;31.69;26.69
16451;BME280;12243;42.708;23.310;2022-07-19T12:31:53;95554.03;;;30.83;27.74
16451;BME280;12243;42.708;23.310;2022-07-19T12:34:20;95541.28;;;30.50;28.00
16451;BME280;12243;42.708;23.310;2022-07-19T12:36:49;95545.31;;;30.76;28.02
16451;BME280;12243;42.708;23.310;2022-07-19T12:39:21;95534.47;;;31.04;27.23
16451;BME280;12243;42.708;23.310;2022-07-19T12:42:06;95525.84;;;31.53;27.03
16451;BME280;12243;42.708;23.310;2022-07-19T12:44:35;95525.16;;;32.23;26.36
16451;BME280;12243;42.708;23.310;2022-07-19T12:47:02;95521.59;;;32.18;26.21
16451;BME280;12243;42.708;23.310;2022-07-19T12:49:43;95525.53;;;31.49;26.93
16451;BME280;12243;42.708;23.310;2022-07-19T12:52:10;95525.19;;;31.12;27.04
16451;BME280;12243;42.708;23.310;2022-07-19T12:54:37;95529.72;;;31.62;26.61
16451;BME280;12243;42.708;23.310;2022-07-19T12:57:04;95527.75;;;32.13;26.46
16451;BME280;12243;42.708;23.310;2022-07-19T12:59:31;95523.91;;;32.31;26.13